Time;durP1;ratioP1;P1;durP2;ratioP2;P2;SDS_P1;SDS_P2;PMS_P1;PMS_P2;Temp;Humidity;BMP_temperature;BMP_pressure;BME280_temperature;BME280_humidity;BME280_pressure;Samples;Min_cycle;Max_cycle;Signal;HPM_P1;HPM_P2
2024/04/20 00:01:10;;;;;;;1.42;0.90;;;;;;;6.47;100.00;91691.13;5436345;26;19998;-82
2024/04/20 00:03:36;;;;;;;0.60;0.60;;;;;;;6.39;100.00;91685.78;5443506;26;19999;-79
2024/04/20 00:06:04;;;;;;;0.40;0.40;;;;;;;6.41;100.00;91687.06;5443899;26;20456;-80
2024/04/20 00:08:31;;;;;;;0.40;0.40;;;;;;;6.41;100.00;91686.28;5436711;26;20007;-80
2024/04/20 00:11:03;;;;;;;0.45;0.45;;;;;;;6.47;100.00;91674.78;5443268;26;19995;-79
2024/04/20 00:13:28;;;;;;;0.93;0.65;;;;;;;6.40;100.00;91684.75;5440284;26;20017;-78
2024/04/20 00:15:54;;;;;;;0.88;0.60;;;;;;;6.32;100.00;91678.31;5443034;26;19995;-77
2024/04/20 00:18:20;;;;;;;0.45;0.45;;;;;;;6.32;100.00;91682.75;5442606;26;20437;-79
2024/04/20 00:20:45;;;;;;;0.40;0.40;;;;;;;6.28;100.00;91685.13;5438270;26;19999;-78
2024/04/20 00:23:12;;;;;;;0.50;0.50;;;;;;;6.24;100.00;91677.13;5442374;26;20025;-81
2024/04/20 00:25:38;;;;;;;0.50;0.50;;;;;;;6.25;100.00;91683.88;5443523;26;20011;-78
2024/04/20 00:28:04;;;;;;;0.43;0.43;;;;;;;6.21;100.00;91690.69;5443920;26;20411;-79
2024/04/20 00:30:30;;;;;;;0.93;0.47;;;;;;;6.19;100.00;91689.41;5428015;26;20301;-79
2024/04/20 00:32:55;;;;;;;0.40;0.40;;;;;;;6.18;100.00;91703.47;5435528;26;20042;-82
2024/04/20 00:35:23;;;;;;;0.40;0.40;;;;;;;6.10;100.00;91697.03;5442572;26;20002;-78
2024/04/20 00:37:52;;;;;;;0.40;0.40;;;;;;;6.14;100.00;91705.06;5444866;26;20052;-78
2024/04/20 00:40:18;;;;;;;1.05;0.70;;;;;;;6.17;100.00;91707.09;5442567;26;20010;-79
2024/04/20 00:42:43;;;;;;;0.63;0.63;;;;;;;6.11;100.00;91708.22;5444705;26;20077;-79
2024/04/20 00:45:09;;;;;;;0.85;0.70;;;;;;;6.07;100.00;91705.38;5444870;26;20003;-78
2024/04/20 00:47:37;;;;;;;0.50;0.50;;;;;;;6.04;100.00;91704.13;5443088;26;20007;-79
2024/04/20 00:50:04;;;;;;;0.57;0.57;;;;;;;6.03;100.00;91704.38;5439438;26;20027;-78
2024/04/20 00:52:31;;;;;;;0.50;0.50;;;;;;;6.03;100.00;91686.22;5441040;26;20007;-77
2024/04/20 00:54:58;;;;;;;0.40;0.40;;;;;;;5.99;100.00;91696.41;5426444;26;19999;-81
2024/04/20 00:57:26;;;;;;;2.38;1.40;;;;;;;5.95;100.00;91698.00;5428516;26;20002;-79
2024/04/20 00:59:53;;;;;;;0.85;0.80;;;;;;;6.03;100.00;91687.00;5412133;26;20006;-78
2024/04/20 01:02:19;;;;;;;0.93;0.80;;;;;;;6.05;100.00;91689.31;5453257;26;19998;-80
2024/04/20 01:04:45;;;;;;;0.85;0.77;;;;;;;5.97;100.00;91682.91;5444504;26;19999;-79
2024/04/20 01:07:12;;;;;;;0.50;0.50;;;;;;;5.91;100.00;91689.16;5444313;26;20474;-79
2024/04/20 01:09:37;;;;;;;0.85;0.68;;;;;;;5.85;100.00;91685.06;5443411;26;20035;-81
2024/04/20 01:12:04;;;;;;;0.60;0.52;;;;;;;5.98;100.00;91687.03;5430616;26;20067;-78
2024/04/20 01:14:30;;;;;;;0.80;0.50;;;;;;;5.81;100.00;91684.09;5441903;26;20347;-79
2024/04/20 01:16:55;;;;;;;0.50;0.50;;;;;;;5.94;100.00;91682.66;5443854;26;20072;-80
2024/04/20 01:19:24;;;;;;;1.25;0.60;;;;;;;5.82;100.00;91680.44;5463158;26;20046;-79
2024/04/20 01:21:51;;;;;;;0.50;0.50;;;;;;;5.78;100.00;91677.59;5432283;26;20075;-81
2024/04/20 01:24:21;;;;;;;1.67;0.60;;;;;;;5.90;100.00;91682.44;5440535;26;20006;-79
2024/04/20 01:26:47;;;;;;;0.50;0.50;;;;;;;5.83;100.00;91671.59;5433115;26;20457;-80
2024/04/20 01:29:12;;;;;;;0.60;0.60;;;;;;;5.91;100.00;91670.22;5441452;26;20012;-80
2024/04/20 01:31:38;;;;;;;0.50;0.50;;;;;;;5.80;99.78;91661.75;5439420;26;20071;-81
2024/04/20 01:34:04;;;;;;;0.47;0.47;;;;;;;5.77;98.33;91670.13;5440457;26;20003;-80
2024/04/20 01:36:29;;;;;;;0.55;0.50;;;;;;;5.77;97.58;91646.72;5436845;26;20862;-82
2024/04/20 01:38:56;;;;;;;0.63;0.63;;;;;;;5.69;98.00;91645.50;5443232;26;20384;-80
2024/04/20 01:41:22;;;;;;;0.55;0.55;;;;;;;5.63;96.25;91642.19;5435475;26;20035;-77
2024/04/20 01:43:47;;;;;;;0.50;0.50;;;;;;;5.59;98.57;91646.41;5440763;26;20011;-81
2024/04/20 01:46:13;;;;;;;0.50;0.50;;;;;;;5.50;100.00;91635.06;5465037;26;20474;-81
2024/04/20 01:48:40;;;;;;;0.60;0.60;;;;;;;5.40;100.00;91637.75;5465208;26;19996;-81
2024/04/20 01:51:05;;;;;;;0.55;0.55;;;;;;;5.33;100.00;91637.31;5433859;26;20458;-82
2024/04/20 01:53:31;;;;;;;0.60;0.60;;;;;;;5.24;100.00;91633.75;5444424;26;20007;-80
2024/04/20 01:55:56;;;;;;;0.52;0.50;;;;;;;5.12;100.00;91632.31;5444673;26;19999;-83
2024/04/20 01:58:22;;;;;;;2.15;0.60;;;;;;;5.01;100.00;91620.47;5446738;26;20342;-79
2024/04/20 02:00:48;;;;;;;0.47;0.47;;;;;;;5.08;100.00;91630.53;5445591;26;20689;-80
2024/04/20 02:03:14;;;;;;;0.47;0.43;;;;;;;4.97;100.00;91640.19;5438271;26;19996;-79
2024/04/20 02:05:40;;;;;;;0.47;0.47;;;;;;;4.93;100.00;91634.00;5441571;26;20002;-80
2024/04/20 02:08:07;;;;;;;0.75;0.50;;;;;;;4.86;98.85;91631.72;5446430;26;19999;-79
2024/04/20 02:10:32;;;;;;;0.45;0.45;;;;;;;4.88;96.57;91641.84;5434120;26;20011;-79
2024/04/20 02:12:58;;;;;;;0.52;0.52;;;;;;;4.86;95.14;91655.06;5445830;26;20014;-83
2024/04/20 02:15:26;;;;;;;0.40;0.40;;;;;;;4.86;93.44;91646.53;5436072;26;20014;-79
2024/04/20 02:17:52;;;;;;;0.50;0.50;;;;;;;4.90;91.29;91660.50;5443986;26;20474;-79
2024/04/20 02:20:17;;;;;;;0.95;0.40;;;;;;;4.91;89.28;91662.03;5441379;26;20049;-80
2024/04/20 02:22:43;;;;;;;0.45;0.45;;;;;;;4.95;86.89;91653.47;5447488;26;20011;-79
2024/04/20 02:25:08;;;;;;;0.55;0.52;;;;;;;4.99;84.23;91653.69;5445231;26;20085;-82
2024/04/20 02:27:35;;;;;;;0.50;0.50;;;;;;;5.07;83.22;91654.94;5446142;26;20473;-81
2024/04/20 02:30:00;;;;;;;0.60;0.60;;;;;;;5.03;85.84;91652.09;5445896;26;20009;-82
2024/04/20 02:32:26;;;;;;;0.60;0.57;;;;;;;4.98;84.98;91657.34;5435235;26;20047;-79
2024/04/20 02:34:52;;;;;;;0.50;0.50;;;;;;;4.93;85.46;91659.94;5446967;26;21144;-80
2024/04/20 02:37:18;;;;;;;0.50;0.50;;;;;;;4.84;86.54;91658.97;5444820;26;20003;-80
2024/04/20 02:39:48;;;;;;;0.70;0.70;;;;;;;4.83;82.29;91655.63;5410471;26;20405;-83
2024/04/20 02:42:14;;;;;;;1.52;0.60;;;;;;;4.82;81.70;91655.88;5445955;26;20010;-81
2024/04/20 02:44:40;;;;;;;0.60;0.60;;;;;;;4.79;81.17;91655.38;5446611;26;20327;-82
2024/04/20 02:47:06;;;;;;;0.60;0.60;;;;;;;4.75;80.25;91656.97;5444369;26;20014;-79
2024/04/20 02:49:32;;;;;;;0.40;0.40;;;;;;;4.77;80.45;91652.31;5446702;26;20361;-82
2024/04/20 02:51:58;;;;;;;1.75;0.65;;;;;;;4.76;78.37;91660.34;5438919;26;20082;-78
2024/04/20 02:54:23;;;;;;;0.50;0.50;;;;;;;4.95;66.23;91655.25;5444995;26;19995;-81
2024/04/20 02:56:49;;;;;;;0.40;0.40;;;;;;;5.00;61.25;91663.03;5440531;26;20006;-79
2024/04/20 02:59:15;;;;;;;0.40;0.40;;;;;;;5.12;58.06;91654.88;5406727;26;20449;-80
2024/04/20 03:01:40;;;;;;;1.55;0.70;;;;;;;5.23;56.13;91674.50;5435555;26;20446;-81
2024/04/20 03:04:06;;;;;;;1.77;0.68;;;;;;;5.42;48.83;91644.22;5445612;26;20006;-79
2024/04/20 03:06:32;;;;;;;0.77;0.57;;;;;;;5.78;42.22;91645.69;5435249;26;20394;-80
2024/04/20 03:08:57;;;;;;;1.40;0.55;;;;;;;5.89;43.62;91664.53;5440825;26;20469;-79
2024/04/20 03:11:23;;;;;;;0.80;0.60;;;;;;;5.99;41.86;91654.03;5446647;26;20506;-79
2024/04/20 03:13:55;;;;;;;0.50;0.50;;;;;;;6.07;40.79;91660.47;5439076;26;20004;-80
2024/04/20 03:16:21;;;;;;;0.82;0.60;;;;;;;6.30;38.98;91659.63;5444491;26;20006;-79
2024/04/20 03:18:48;;;;;;;1.00;0.70;;;;;;;6.26;39.48;91682.06;5446714;26;19998;-82
2024/04/20 03:21:14;;;;;;;0.60;0.50;;;;;;;6.45;38.78;91662.03;5446568;26;20010;-81
2024/04/20 03:23:39;;;;;;;0.47;0.47;;;;;;;6.51;38.57;91675.75;5444269;26;20009;-79
2024/04/20 03:26:06;;;;;;;2.15;0.60;;;;;;;6.45;41.09;91667.25;5433519;26;20006;-80
2024/04/20 03:28:31;;;;;;;0.55;0.55;;;;;;;6.43;39.07;91671.94;5439903;26;20441;-81
2024/04/20 03:30:57;;;;;;;0.60;0.60;;;;;;;6.44;38.29;91676.09;5433461;26;20006;-80
2024/04/20 03:33:28;;;;;;;0.50;0.50;;;;;;;6.52;41.22;91679.91;5441740;26;20030;-78
2024/04/20 03:35:56;;;;;;;0.70;0.55;;;;;;;6.35;42.92;91682.19;5439315;26;20006;-78
2024/04/20 03:38:22;;;;;;;0.52;0.50;;;;;;;6.26;41.17;91684.66;5414541;26;20045;-79
2024/04/20 03:40:48;;;;;;;0.43;0.43;;;;;;;6.16;38.97;91674.38;5446827;26;20044;-79
2024/04/20 03:43:13;;;;;;;1.25;0.65;;;;;;;6.11;43.10;91687.44;5432931;26;20077;-80
2024/04/20 03:45:39;;;;;;;1.02;0.70;;;;;;;6.08;44.72;91693.16;5441321;26;20011;-79
2024/04/20 03:48:05;;;;;;;0.40;0.40;;;;;;;5.97;47.96;91692.53;5444024;26;20038;-78
2024/04/20 03:50:30;;;;;;;0.63;0.63;;;;;;;5.89;49.38;91688.66;5446266;26;20002;-81
2024/04/20 03:52:56;;;;;;;0.40;0.40;;;;;;;5.86;48.16;91688.47;5458258;26;20014;-81
2024/04/20 03:55:22;;;;;;;0.70;0.50;;;;;;;5.91;45.91;91685.81;5444599;26;20010;-79
2024/04/20 03:57:48;;;;;;;1.55;0.70;;;;;;;5.89;46.12;91685.31;5444817;26;19999;-80
2024/04/20 04:00:14;;;;;;;1.40;0.50;;;;;;;5.97;45.72;91685.50;5449350;26;20004;-81
2024/04/20 04:02:40;;;;;;;0.90;0.50;;;;;;;5.93;44.94;91689.66;5447378;26;19995;-78
2024/04/20 04:05:06;;;;;;;0.50;0.50;;;;;;;5.93;43.34;91686.31;5440870;26;20458;-81
2024/04/20 04:07:31;;;;;;;0.52;0.52;;;;;;;5.86;48.07;91685.88;5440093;26;20025;-82
2024/04/20 04:09:57;;;;;;;0.63;0.60;;;;;;;5.73;44.58;91689.88;5446451;26;20002;-79
2024/04/20 04:12:22;;;;;;;0.73;0.60;;;;;;;5.64;50.03;91681.91;5446493;26;19998;-83
2024/04/20 04:14:49;;;;;;;1.33;0.70;;;;;;;5.58;45.48;91685.59;5439816;26;20350;-79
2024/04/20 04:17:15;;;;;;;0.85;0.75;;;;;;;5.62;47.89;91682.19;5444224;26;20009;-79
2024/04/20 04:19:40;;;;;;;1.50;0.77;;;;;;;5.60;48.99;91684.28;5442960;26;20024;-79
2024/04/20 04:22:06;;;;;;;1.85;0.70;;;;;;;5.62;51.68;91684.78;5448558;26;20358;-79
2024/04/20 04:24:31;;;;;;;0.70;0.60;;;;;;;5.50;52.67;91684.38;5446531;26;20009;-81
2024/04/20 04:27:13;;;;;;;0.85;0.52;;;;;;;5.45;52.75;91687.03;5443922;26;20490;-80
2024/04/20 04:29:40;;;;;;;0.43;0.43;;;;;;;5.37;52.51;91693.56;5440145;26;20469;-80
2024/04/20 04:32:07;;;;;;;0.90;0.65;;;;;;;5.32;51.16;91695.47;5446639;26;19999;-83
2024/04/20 04:34:32;;;;;;;1.52;0.90;;;;;;;5.28;50.91;91697.03;5445936;26;20130;-83
2024/04/20 04:36:58;;;;;;;1.13;0.55;;;;;;;5.23;51.48;91700.47;5438456;26;20368;-79
2024/04/20 04:39:24;;;;;;;0.68;0.60;;;;;;;5.20;52.41;91706.97;5465125;26;20003;-79
2024/04/20 04:41:49;;;;;;;0.88;0.60;;;;;;;5.19;51.63;91700.22;5475179;26;20072;-81
2024/04/20 04:44:15;;;;;;;0.68;0.57;;;;;;;5.16;52.65;91700.75;5445121;26;20549;-79
2024/04/20 04:46:40;;;;;;;0.60;0.60;;;;;;;5.14;52.25;91704.69;5460353;26;19999;-82
2024/04/20 04:49:06;;;;;;;3.17;0.80;;;;;;;5.07;54.76;91702.41;5446838;26;19998;-79
2024/04/20 04:51:31;;;;;;;0.40;0.40;;;;;;;5.06;54.48;91708.63;5443879;26;20623;-80
2024/04/20 04:53:57;;;;;;;0.40;0.40;;;;;;;5.02;54.03;91710.19;5481169;26;20517;-79
2024/04/20 04:56:23;;;;;;;1.08;0.70;;;;;;;5.05;46.11;91709.66;5486988;26;20078;-82
2024/04/20 04:58:48;;;;;;;1.10;0.70;;;;;;;5.21;43.84;91713.69;5482996;26;20010;-81
2024/04/20 05:01:14;;;;;;;2.38;0.95;;;;;;;5.41;44.00;91722.38;5450359;26;20349;-78
2024/04/20 05:03:39;;;;;;;1.05;0.70;;;;;;;5.62;44.07;91715.16;5482811;26;20457;-81
2024/04/20 05:06:06;;;;;;;0.40;0.40;;;;;;;6.07;40.41;91722.81;5482835;26;20006;-80
2024/04/20 05:08:32;;;;;;;0.50;0.50;;;;;;;6.18;41.73;91721.66;5485353;26;20017;-80
2024/04/20 05:10:57;;;;;;;0.40;0.40;;;;;;;6.08;43.92;91732.94;5439194;26;20006;-81
2024/04/20 05:13:23;;;;;;;0.90;0.57;;;;;;;6.09;43.58;91737.06;5470912;26;20012;-79
2024/04/20 05:15:49;;;;;;;0.50;0.47;;;;;;;6.10;45.20;91740.44;5481890;26;20022;-80
2024/04/20 05:18:16;;;;;;;1.08;0.60;;;;;;;6.27;46.87;91738.19;5481667;26;20002;-79
2024/04/20 05:20:42;;;;;;;0.57;0.47;;;;;;;6.24;48.59;91733.53;5479679;26;20059;-79
2024/04/20 05:23:07;;;;;;;0.60;0.50;;;;;;;6.29;49.71;91749.06;5436582;26;20446;-80
2024/04/20 05:25:33;;;;;;;0.85;0.60;;;;;;;6.30;50.24;91753.22;5447101;26;20009;-80
2024/04/20 05:27:59;;;;;;;1.10;0.70;;;;;;;6.33;49.61;91752.69;5481802;26;20510;-82
2024/04/20 05:30:24;;;;;;;0.55;0.55;;;;;;;6.45;49.46;91760.06;5478683;26;19998;-79
2024/04/20 05:32:54;;;;;;;0.75;0.60;;;;;;;6.60;48.32;91759.91;5479604;26;20444;-79
2024/04/20 05:35:20;;;;;;;0.82;0.60;;;;;;;6.69;48.49;91765.25;5483228;26;20022;-79
2024/04/20 05:37:46;;;;;;;0.57;0.57;;;;;;;6.71;48.32;91755.34;5417547;26;20006;-78
2024/04/20 05:40:11;;;;;;;0.82;0.57;;;;;;;6.73;49.18;91760.25;5484108;26;19998;-80
2024/04/20 05:42:37;;;;;;;0.50;0.50;;;;;;;6.76;49.63;91759.72;5470008;26;20002;-79
2024/04/20 05:45:03;;;;;;;0.73;0.60;;;;;;;6.81;50.03;91757.81;5453719;26;20010;-78
2024/04/20 05:47:28;;;;;;;0.50;0.50;;;;;;;6.91;48.40;91761.31;5445466;26;20001;-79
2024/04/20 05:49:55;;;;;;;0.80;0.68;;;;;;;6.98;48.67;91765.13;5485132;26;19998;-78
2024/04/20 05:52:21;;;;;;;1.10;0.70;;;;;;;7.04;48.00;91763.22;5469602;26;19999;-79
2024/04/20 05:54:47;;;;;;;0.60;0.60;;;;;;;7.16;47.68;91773.22;5468361;26;20010;-78
2024/04/20 05:57:13;;;;;;;0.75;0.70;;;;;;;7.25;47.11;91767.09;5450888;26;19998;-80
2024/04/20 05:59:38;;;;;;;0.43;0.43;;;;;;;7.39;41.98;91776.81;5474867;26;20070;-79
2024/04/20 06:02:04;;;;;;;0.52;0.52;;;;;;;7.50;44.34;91778.22;5449781;26;19990;-79
2024/04/20 06:04:30;;;;;;;0.52;0.47;;;;;;;7.69;44.34;91776.31;5450645;26;20013;-79
2024/04/20 06:06:56;;;;;;;0.95;0.60;;;;;;;7.84;40.01;91777.91;5444278;26;20026;-79
2024/04/20 06:09:21;;;;;;;1.50;0.80;;;;;;;8.00;42.72;91775.06;5448124;26;19998;-79
2024/04/20 06:11:47;;;;;;;0.68;0.57;;;;;;;8.17;44.39;91779.72;5447371;26;20556;-79
2024/04/20 06:14:13;;;;;;;1.55;0.60;;;;;;;8.31;44.10;91781.28;5449388;26;20030;-79
2024/04/20 06:16:40;;;;;;;0.60;0.50;;;;;;;8.78;43.10;91778.59;5470119;26;20014;-79
2024/04/20 06:19:05;;;;;;;0.90;0.65;;;;;;;10.16;40.03;91777.34;5466776;26;20086;-79
2024/04/20 06:21:31;;;;;;;0.63;0.63;;;;;;;11.44;37.52;91774.63;5440206;26;20005;-78
2024/04/20 06:23:56;;;;;;;0.60;0.60;;;;;;;12.65;36.34;91772.91;5471848;26;20002;-78
2024/04/20 06:26:23;;;;;;;0.70;0.70;;;;;;;13.74;32.40;91775.81;5415062;26;20350;-79
2024/04/20 06:28:49;;;;;;;0.68;0.60;;;;;;;14.65;30.75;91775.84;5480221;26;20002;-79
2024/04/20 06:31:14;;;;;;;0.82;0.60;;;;;;;15.37;31.21;91785.94;5483973;26;20020;-80
2024/04/20 06:33:41;;;;;;;0.45;0.45;;;;;;;15.86;29.19;91782.44;5479887;26;20002;-79
2024/04/20 06:36:07;;;;;;;0.40;0.40;;;;;;;16.64;29.37;91781.84;5427828;26;20014;-80
2024/04/20 06:38:33;;;;;;;0.85;0.55;;;;;;;16.76;27.58;91786.28;5487936;26;20083;-80
2024/04/20 06:41:01;;;;;;;0.40;0.40;;;;;;;17.44;27.49;91776.50;5494538;26;20010;-79
2024/04/20 06:43:26;;;;;;;0.45;0.43;;;;;;;17.80;26.23;91793.13;5496160;26;19994;-80
2024/04/20 06:45:52;;;;;;;1.17;0.75;;;;;;;18.78;24.18;91789.34;5496093;26;19997;-79
2024/04/20 06:48:18;;;;;;;0.63;0.60;;;;;;;17.08;27.23;91791.59;5457535;26;19994;-78
2024/04/20 06:50:45;;;;;;;0.40;0.40;;;;;;;14.75;28.23;91782.56;5422654;26;20014;-78
2024/04/20 06:53:11;;;;;;;1.35;0.68;;;;;;;14.39;29.87;91794.56;5403989;26;20048;-78
2024/04/20 06:55:37;;;;;;;0.65;0.60;;;;;;;14.53;30.63;91794.25;5449629;26;20002;-79
2024/04/20 06:58:03;;;;;;;0.30;0.30;;;;;;;14.04;30.28;91792.25;5494238;20;22392;-76
2024/04/20 07:00:29;;;;;;;1.13;0.55;;;;;;;13.00;31.90;91808.72;5427212;26;20074;-77
2024/04/20 07:02:54;;;;;;;0.63;0.63;;;;;;;12.04;32.41;91799.28;5483670;26;20102;-76
2024/04/20 07:05:20;;;;;;;1.25;0.80;;;;;;;11.41;34.03;91798.81;5447973;26;20018;-75
2024/04/20 07:07:45;;;;;;;2.65;0.43;;;;;;;11.33;33.12;91807.47;5444508;26;19998;-74
2024/04/20 07:10:11;;;;;;;0.77;0.70;;;;;;;10.90;32.86;91825.69;5492178;26;20001;-75
2024/04/20 07:12:37;;;;;;;0.70;0.70;;;;;;;11.14;34.37;91804.34;5484415;26;20460;-74
2024/04/20 07:15:03;;;;;;;0.70;0.70;;;;;;;11.88;33.43;91809.50;5479431;26;19999;-75
2024/04/20 07:17:28;;;;;;;0.68;0.50;;;;;;;11.90;33.18;91797.94;5484976;26;20017;-75
2024/04/20 07:19:54;;;;;;;2.58;0.70;;;;;;;12.61;34.22;91807.94;5482059;26;19994;-77
2024/04/20 07:22:20;;;;;;;1.30;0.98;;;;;;;12.17;31.76;91797.56;5479022;26;20432;-77
2024/04/20 07:24:45;;;;;;;0.60;0.57;;;;;;;11.86;33.74;91801.13;5481978;26;20003;-76
2024/04/20 07:27:11;;;;;;;0.55;0.55;;;;;;;12.47;32.58;91808.94;5483250;26;20064;-75
2024/04/20 07:29:37;;;;;;;0.60;0.60;;;;;;;12.84;31.46;91816.38;5450015;26;20002;-76
2024/04/20 07:32:02;;;;;;;0.57;0.57;;;;;;;13.31;31.51;91814.47;5498608;26;20033;-77
2024/04/20 07:34:29;;;;;;;0.85;0.70;;;;;;;13.15;31.04;91810.03;5491531;26;20002;-75
2024/04/20 07:36:56;;;;;;;0.85;0.50;;;;;;;13.00;29.93;91816.63;5440541;26;19998;-75
2024/04/20 07:39:23;;;;;;;1.35;0.85;;;;;;;13.38;28.65;91818.44;5478198;26;20008;-74
2024/04/20 07:41:49;;;;;;;0.40;0.40;;;;;;;11.84;29.35;91800.69;5483249;26;20009;-73
2024/04/20 07:44:15;;;;;;;0.98;0.65;;;;;;;12.04;31.79;91820.28;5483363;26;19994;-73
2024/04/20 07:46:44;;;;;;;0.68;0.60;;;;;;;11.73;29.32;91844.03;5485408;26;20013;-75
2024/04/20 07:49:09;;;;;;;0.82;0.80;;;;;;;11.32;30.51;91811.16;5487788;26;20053;-73
2024/04/20 07:51:35;;;;;;;0.77;0.60;;;;;;;11.30;31.00;91836.88;5486741;26;19998;-75
2024/04/20 07:54:01;;;;;;;0.75;0.73;;;;;;;11.68;29.66;91833.69;5452573;26;20072;-74
2024/04/20 07:56:27;;;;;;;0.63;0.47;;;;;;;11.58;29.94;91831.38;5443730;26;19998;-75
2024/04/20 07:58:52;;;;;;;0.55;0.50;;;;;;;11.75;29.55;91831.38;5487404;26;20009;-75
2024/04/20 08:01:18;;;;;;;1.13;0.80;;;;;;;12.07;28.97;91835.41;5483717;26;20049;-75
2024/04/20 08:03:44;;;;;;;0.50;0.50;;;;;;;12.22;30.03;91826.28;5468055;26;20030;-76
2024/04/20 08:06:10;;;;;;;0.50;0.50;;;;;;;11.70;28.28;91826.28;5409812;26;20336;-76
2024/04/20 08:08:36;;;;;;;0.50;0.50;;;;;;;11.81;28.01;91835.38;5442569;26;19995;-74
2024/04/20 08:11:02;;;;;;;0.50;0.50;;;;;;;11.44;29.25;91824.44;5449919;26;19999;-76
2024/04/20 08:13:29;;;;;;;0.43;0.43;;;;;;;12.03;28.62;91844.22;5477652;26;20520;-75
2024/04/20 08:15:55;;;;;;;1.13;0.43;;;;;;;11.99;27.24;91832.78;5408095;26;20033;-76
2024/04/20 08:18:21;;;;;;;0.40;0.40;;;;;;;11.73;27.54;91828.31;5477696;26;20030;-75
2024/04/20 08:20:53;;;;;;;2.20;0.60;;;;;;;12.12;29.05;91847.59;5470776;26;20441;-74
2024/04/20 08:23:18;;;;;;;0.77;0.60;;;;;;;12.40;27.23;91848.00;5483986;26;20810;-74
2024/04/20 08:25:44;;;;;;;0.93;0.60;;;;;;;11.73;26.34;91861.59;5488123;26;20009;-77
2024/04/20 08:28:10;;;;;;;0.77;0.60;;;;;;;11.69;27.76;91850.22;5442535;26;20700;-75
2024/04/20 08:30:35;;;;;;;0.90;0.70;;;;;;;12.04;28.61;91862.25;5477332;26;20006;-76
2024/04/20 08:33:01;;;;;;;0.70;0.70;;;;;;;12.35;25.11;91868.41;5465267;26;20002;-76
2024/04/20 08:35:27;;;;;;;0.50;0.50;;;;;;;12.03;26.24;91852.09;5486749;26;19994;-76
2024/04/20 08:37:53;;;;;;;0.50;0.50;;;;;;;12.19;24.90;91870.75;5490251;26;19998;-76
2024/04/20 08:40:18;;;;;;;0.60;0.60;;;;;;;11.79;25.93;91876.88;5432822;26;20009;-76
2024/04/20 08:42:46;;;;;;;0.45;0.45;;;;;;;12.13;27.55;91880.59;5455900;26;19998;-77
2024/04/20 08:45:14;;;;;;;0.60;0.60;;;;;;;11.78;26.34;91882.44;5489425;26;20053;-77
2024/04/20 08:47:43;;;;;;;1.00;0.70;;;;;;;12.11;27.69;91877.53;5477464;26;19998;-77
2024/04/20 08:50:10;;;;;;;1.85;0.68;;;;;;;12.10;26.32;91876.00;5458288;26;19997;-77
2024/04/20 08:52:37;;;;;;;0.90;0.52;;;;;;;12.02;24.81;91900.38;5489191;26;19994;-76
2024/04/20 08:55:05;;;;;;;0.45;0.43;;;;;;;11.86;25.05;91881.66;5486019;26;20002;-77
2024/04/20 08:57:36;;;;;;;0.55;0.52;;;;;;;11.73;26.34;91903.56;5456186;26;19993;-77
2024/04/20 09:00:02;;;;;;;0.52;0.52;;;;;;;12.23;25.24;91896.06;5482047;26;20065;-77
2024/04/20 09:02:31;;;;;;;0.40;0.40;;;;;;;12.37;24.64;91889.88;5423197;26;20010;-77
2024/04/20 09:04:57;;;;;;;2.30;0.70;;;;;;;12.33;25.26;91902.06;5486763;26;20070;-77
2024/04/20 09:07:26;;;;;;;0.50;0.50;;;;;;;12.77;24.81;91918.53;5483077;26;20098;-77
2024/04/20 09:09:51;;;;;;;0.50;0.50;;;;;;;12.67;24.43;91896.75;5472634;26;20291;-77
2024/04/20 09:12:19;;;;;;;0.60;0.60;;;;;;;12.83;25.84;91919.88;5482439;26;20013;-77
2024/04/20 09:14:44;;;;;;;0.95;0.60;;;;;;;12.71;24.96;91910.03;5477217;26;20026;-77
2024/04/20 09:17:10;;;;;;;3.08;0.70;;;;;;;12.11;24.70;91937.88;5484926;26;20381;-77
2024/04/20 09:19:35;;;;;;;1.48;0.63;;;;;;;12.11;25.20;91924.75;5424300;26;20539;-77
2024/04/20 09:22:08;;;;;;;1.30;0.60;;;;;;;12.22;24.37;91909.47;5481128;26;20034;-77
2024/04/20 09:24:34;;;;;;;0.50;0.50;;;;;;;12.51;24.33;91916.69;5477684;26;20009;-77
2024/04/20 09:27:01;;;;;;;0.57;0.57;;;;;;;12.36;24.34;91931.09;5483089;26;20551;-76
2024/04/20 09:29:27;;;;;;;1.33;0.70;;;;;;;12.20;25.19;91932.63;5482532;26;19998;-77
2024/04/20 09:31:53;;;;;;;0.60;0.60;;;;;;;12.33;24.19;91930.94;5477864;26;20058;-77
2024/04/20 09:34:23;;;;;;;0.75;0.60;;;;;;;12.35;24.46;91945.28;5484838;26;20009;-77
2024/04/20 09:36:50;;;;;;;1.30;0.82;;;;;;;12.64;26.40;91942.00;5466978;26;20010;-77
2024/04/20 09:39:15;;;;;;;3.05;0.60;;;;;;;12.93;24.07;91953.72;5443642;26;20002;-76
2024/04/20 09:41:47;;;;;;;0.50;0.50;;;;;;;12.43;24.40;91930.63;5469212;26;20006;-77
2024/04/20 09:44:15;;;;;;;0.90;0.70;;;;;;;12.36;24.14;91948.66;5493156;26;20016;-76
2024/04/20 09:46:48;;;;;;;0.52;0.50;;;;;;;13.34;26.71;91955.00;5469653;26;20030;-77
2024/04/20 09:49:15;;;;;;;0.80;0.50;;;;;;;13.48;23.73;91963.44;5472760;26;20010;-79
2024/04/20 09:52:13;;;;;;;0.85;0.60;;;;;;;12.33;23.22;91959.78;5482104;26;20010;-76
2024/04/20 09:55:25;;;;;;;1.65;0.70;;;;;;;12.64;24.25;91947.25;5470167;26;20027;-79
2024/04/20 09:57:51;;;;;;;0.60;0.60;;;;;;;12.34;23.01;91969.19;5454884;26;20010;-78
2024/04/20 10:00:19;;;;;;;0.47;0.47;;;;;;;12.87;24.90;91968.09;5479280;26;20010;-76
2024/04/20 10:02:47;;;;;;;0.55;0.55;;;;;;;13.07;23.42;91975.28;5441334;26;20072;-77
2024/04/20 10:05:15;;;;;;;0.40;0.40;;;;;;;13.05;24.58;91966.94;5468629;26;20508;-76
2024/04/20 10:07:43;;;;;;;0.60;0.60;;;;;;;13.48;23.43;91958.16;5466938;26;20013;-78
2024/04/20 10:10:10;;;;;;;0.95;0.52;;;;;;;12.91;21.82;91956.63;5476753;26;20429;-77
2024/04/20 10:12:36;;;;;;;0.50;0.50;;;;;;;12.97;23.29;91953.84;5416877;26;20009;-77
2024/04/20 10:15:02;;;;;;;0.70;0.60;;;;;;;13.04;24.54;91959.41;5474483;26;20082;-76
2024/04/20 10:17:28;;;;;;;0.63;0.60;;;;;;;13.76;26.05;91981.41;5471168;26;20003;-77
2024/04/20 10:19:59;;;;;;;1.25;0.60;;;;;;;13.35;22.44;91964.41;5483652;26;20016;-77
2024/04/20 10:22:25;;;;;;;2.20;0.60;;;;;;;12.98;23.83;91979.81;5467838;26;20404;-77
2024/04/20 10:24:55;;;;;;;0.60;0.50;;;;;;;13.10;24.12;91974.69;5475471;26;19998;-77
2024/04/20 10:27:26;;;;;;;0.57;0.57;;;;;;;13.38;25.04;91982.19;5437844;26;20006;-77
2024/04/20 10:29:52;;;;;;;0.80;0.70;;;;;;;13.43;24.98;91966.25;5477255;26;20374;-77
2024/04/20 10:32:24;;;;;;;3.92;0.50;;;;;;;13.01;24.25;91966.03;5477619;26;20464;-79
2024/04/20 10:34:49;;;;;;;0.65;0.65;;;;;;;12.89;24.55;91984.31;5481175;26;20011;-76
2024/04/20 10:37:24;;;;;;;0.60;0.60;;;;;;;12.62;22.83;91980.16;5438846;26;20067;-77
2024/04/20 10:39:50;;;;;;;1.83;0.60;;;;;;;12.93;24.72;91995.75;5476368;26;20363;-76
2024/04/20 10:42:23;;;;;;;0.70;0.70;;;;;;;13.03;24.36;91978.88;5444857;26;19999;-77
2024/04/20 10:44:48;;;;;;;0.70;0.52;;;;;;;13.11;24.54;91988.59;5474985;26;20444;-76
2024/04/20 10:47:21;;;;;;;1.27;0.70;;;;;;;12.08;24.83;91999.59;5469936;26;20002;-78
2024/04/20 10:49:46;;;;;;;0.60;0.60;;;;;;;12.47;25.92;92007.66;5482795;26;20383;-78
2024/04/20 10:52:18;;;;;;;0.60;0.60;;;;;;;11.86;25.79;92015.41;5477411;26;20083;-78
2024/04/20 10:54:43;;;;;;;0.70;0.70;;;;;;;12.39;25.63;92003.19;5474565;26;19998;-77
2024/04/20 10:57:11;;;;;;;0.40;0.40;;;;;;;12.55;25.69;91993.00;5477178;26;20002;-79
2024/04/20 10:59:43;;;;;;;0.60;0.60;;;;;;;12.05;24.66;92008.09;5434327;26;20013;-78
2024/04/20 11:02:11;;;;;;;0.55;0.55;;;;;;;12.52;27.53;92018.03;5472156;26;20451;-78
2024/04/20 11:04:37;;;;;;;0.70;0.70;;;;;;;12.65;25.47;92013.69;5473498;26;20069;-78
2024/04/20 11:07:04;;;;;;;0.80;0.63;;;;;;;12.59;24.95;92013.06;5472413;26;20006;-79
2024/04/20 11:09:29;;;;;;;0.47;0.47;;;;;;;12.33;23.51;92025.41;5444413;26;20009;-79
2024/04/20 11:12:00;;;;;;;0.52;0.52;;;;;;;12.56;24.28;92028.66;5441332;26;20006;-78
2024/04/20 11:14:27;;;;;;;0.63;0.50;;;;;;;13.08;25.65;92013.66;5478063;26;19995;-78
2024/04/20 11:16:52;;;;;;;1.85;0.70;;;;;;;12.69;24.01;92031.13;5465495;26;20005;-78
2024/04/20 11:19:19;;;;;;;0.60;0.60;;;;;;;12.36;25.41;92017.72;5472424;26;19998;-78
2024/04/20 11:21:45;;;;;;;0.47;0.47;;;;;;;12.45;25.10;92004.56;5480747;26;20006;-77
2024/04/20 11:24:11;;;;;;;1.45;0.65;;;;;;;12.50;24.32;91999.19;5446946;26;19999;-78
2024/04/20 11:26:36;;;;;;;0.60;0.60;;;;;;;12.44;24.96;92000.41;5480593;26;20030;-78
2024/04/20 11:29:02;;;;;;;1.35;0.80;;;;;;;12.33;25.67;92007.03;5459442;26;20005;-78
2024/04/20 11:31:28;;;;;;;2.40;0.65;;;;;;;12.42;26.39;92018.31;5489029;26;20002;-79
2024/04/20 11:33:54;;;;;;;0.40;0.40;;;;;;;12.02;25.67;92031.53;5415390;26;20013;-76